Airport ID:KSMD
Update Time (UTC):22/03/2019 06:32
Wind Speed (Knots):8
Wind Direction (Magnetic):250
Temperature (°C):1.7
Dew Point (°C):1.7
Humidity (%):100
Altimeter (inHg):29.89
Density Altitude (Feet):
Visibility (Miles):6
Clouds (Hundreds of feet):CLR
Present Weather:BR
METAR:METAR KSMD 220630Z AUTO 24007KT 6SM BR CLR 02/02 A2989 RMK A01

The data displayed is for advisory purposes only and is not to be used for flight planning or operations.

This page is not automatically refreshed. Reload the page to see current data.